地図

経路データ

SID SEASON NUMBER BASIN SUBBASIN NAME ISO_TIME NATURE LAT LON WMO_WIND WMO_PRES WMO_AGENCY TRACK_TYPE DIST2LAND LANDFALL IFLAG USA_AGENCY USA_ATCF_ID USA_LAT USA_LON USA_RECORD USA_STATUS USA_WIND USA_PRES USA_SSHS USA_R34_NE USA_R34_SE USA_R34_SW USA_R34_NW USA_R50_NE USA_R50_SE USA_R50_SW USA_R50_NW USA_R64_NE USA_R64_SE USA_R64_SW USA_R64_NW USA_POCI USA_ROCI USA_RMW USA_EYE TOKYO_LAT TOKYO_LON TOKYO_GRADE TOKYO_WIND TOKYO_PRES TOKYO_R50_DIR TOKYO_R50_LONG TOKYO_R50_SHORT TOKYO_R30_DIR TOKYO_R30_LONG TOKYO_R30_SHORT TOKYO_LAND CMA_LAT CMA_LON CMA_CAT CMA_WIND CMA_PRES HKO_LAT HKO_LON HKO_CAT HKO_WIND HKO_PRES NEWDELHI_LAT NEWDELHI_LON NEWDELHI_GRADE NEWDELHI_WIND NEWDELHI_PRES NEWDELHI_CI NEWDELHI_DP NEWDELHI_POCI REUNION_LAT REUNION_LON REUNION_TYPE REUNION_WIND REUNION_PRES REUNION_TNUM REUNION_CI REUNION_RMW REUNION_R34_NE REUNION_R34_SE REUNION_R34_SW REUNION_R34_NW REUNION_R50_NE REUNION_R50_SE REUNION_R50_SW REUNION_R50_NW REUNION_R64_NE REUNION_R64_SE REUNION_R64_SW REUNION_R64_NW BOM_LAT BOM_LON BOM_TYPE BOM_WIND BOM_PRES BOM_TNUM BOM_CI BOM_RMW BOM_R34_NE BOM_R34_SE BOM_R34_SW BOM_R34_NW BOM_R50_NE BOM_R50_SE BOM_R50_SW BOM_R50_NW BOM_R64_NE BOM_R64_SE BOM_R64_SW BOM_R64_NW BOM_ROCI BOM_POCI BOM_EYE BOM_POS_METHOD BOM_PRES_METHOD NADI_LAT NADI_LON NADI_CAT NADI_WIND NADI_PRES WELLINGTON_LAT WELLINGTON_LON WELLINGTON_WIND WELLINGTON_PRES DS824_LAT DS824_LON DS824_STAGE DS824_WIND DS824_PRES TD9636_LAT TD9636_LON TD9636_STAGE TD9636_WIND TD9636_PRES TD9635_LAT TD9635_LON TD9635_WIND TD9635_PRES TD9635_ROCI NEUMANN_LAT NEUMANN_LON NEUMANN_CLASS NEUMANN_WIND NEUMANN_PRES MLC_LAT MLC_LON MLC_CLASS MLC_WIND MLC_PRES USA_GUST BOM_GUST BOM_GUST_PER REUNION_GUST REUNION_GUST_PER USA_SEAHGT USA_SEARAD_NE USA_SEARAD_SE USA_SEARAD_SW USA_SEARAD_NW STORM_SPEED STORM_DIR
1975212S24178 1976 64 SP MM NOT_NAMED 1975-07-31 00:00:00 TS -23.7000 177.900 main 603 603 O________OO_O_ jtwc_sh SH011976 -23.7000 177.900 -1 -23.7000 177.900 TC 35 -23.7000 177.900 2 -23.7000 177.900 TC 25 10 205
1975212S24178 1976 64 SP MM NOT_NAMED 1975-07-31 03:00:00 TS -24.1356 177.680 main 648 648 P________PP_P_ SH011976 -24.1876 177.645 -1 -24.1876 177.645 TC 35 -24.1247 177.713 2 -24.0425 177.717 TC 25 9 206
1975212S24178 1976 64 SP MM NOT_NAMED 1975-07-31 06:00:00 TS -24.5274 177.450 main 694 694 O________OP_O_ jtwc_sh SH011976 -24.6000 177.400 -1 -24.6000 177.400 TC 35 -24.5095 177.500 2 -24.4000 177.500 TC 25 8 212
1975212S24178 1976 64 SP MM NOT_NAMED 1975-07-31 09:00:00 TS -24.8311 177.198 main 730 730 P________PP_P_ SH011976 -24.8749 177.165 -1 -24.8749 177.165 TC 35 -24.8146 177.238 2 -24.7600 177.223 TC 27 7 227
1975212S24178 1976 64 SP MM NOT_NAMED 1975-07-31 12:00:00 TS -25.0000 176.900 main 756 756 O________OO_O_ jtwc_sh SH011976 -25.0000 176.900 -1 -25.0000 176.900 TC 35 -25.0000 176.900 2 -25.0000 176.900 TC 30 6 252
1975212S24178 1976 64 SP MM NOT_NAMED 1975-07-31 15:00:00 TS -25.0259 176.532 main 762 758 P________PP_P_ SH011976 -25.0176 176.550 -1 -25.0176 176.550 TC 35 -25.0356 176.486 2 -25.0326 176.542 TC 30 7 278
1975212S24178 1976 64 SP MM NOT_NAMED 1975-07-31 18:00:00 TS -24.9081 176.169 main 758 747 O________OP_O_ jtwc_sh SH011976 -24.9000 176.200 -1 -24.9000 176.200 TC 35 -24.9326 176.078 2 -24.9000 176.200 TC 30 7 296
1975212S24178 1976 64 SP MM NOT_NAMED 1975-07-31 21:00:00 TS -24.7239 175.836 main 747 719 P________PP_P_ SH011976 -24.7249 175.852 -1 -24.7249 175.852 TC 35 -24.7131 175.782 2 -24.7325 175.859 TC 32 7 320
1975212S24178 1976 64 SP MM NOT_NAMED 1975-08-01 00:00:00 TS -24.4000 175.700 main 719 659 O________OO_O_ jtwc_sh SH011976 -24.4000 175.700 -1 -24.4000 175.700 TC 35 -24.4000 175.700 2 -24.4000 175.700 TC 35 9 2
1975212S24178 1976 64 SP MM NOT_NAMED 1975-08-01 03:00:00 TS -23.8678 175.869 main 659 583 P________PP_P_ SH011976 -23.8646 175.865 -1 -23.8646 175.865 TC 35 -23.9348 175.937 2 -23.8070 175.808 TC 35 12 26
1975212S24178 1976 64 SP MM NOT_NAMED 1975-08-01 06:00:00 TS -23.3007 176.297 main 583 524 O________OP_O_ jtwc_sh SH011976 -23.3000 176.300 -1 -23.3000 176.300 TC 35 -23.4029 176.388 2 -23.2000 176.200 TC 35 14 43
1975212S24178 1976 64 SP MM NOT_NAMED 1975-08-01 09:00:00 TS -22.8495 176.907 main 513 481 P________PP_P_ SH011976 -22.8454 176.906 -1 -22.8454 176.906 TC 35 -22.9194 176.969 2 -22.7881 176.848 TC 37 14 60
1975212S24178 1976 64 SP MM NOT_NAMED 1975-08-01 12:00:00 TS -22.6000 177.600 main 481 480 O________OO_O_ jtwc_sh SH011976 -22.6000 177.600 -1 -22.6000 177.600 TC 35 -22.6000 177.600 2 -22.6000 177.600 TC 40 12 80
1975212S24178 1976 64 SP MM NOT_NAMED 1975-08-01 15:00:00 TS -22.6491 178.201 main 480 480 P________PP_P_ SH011976 -22.6672 178.207 -1 -22.6672 178.207 TC 35 -22.5876 178.177 2 -22.6746 178.214 TC 40 11 103
1975212S24178 1976 64 SP MM NOT_NAMED 1975-08-01 18:00:00 TS -22.8620 178.797 main 518 518 O________OP_O_ jtwc_sh SH011976 -22.9000 178.800 -1 -22.9000 178.800 TC 35 -22.7481 178.789 2 -22.9000 178.800 TC 40 12 110
1975212S24178 1976 64 SP MM NOT_NAMED 1975-08-01 21:00:00 TS -23.0661 179.413 main 551 551 P________PP_P_ SH011976 -23.0849 179.415 -1 -23.0849 179.415 TC 35 -23.0094 179.406 2 -23.0849 179.415 TC 42 12 112
1975212S24178 1976 64 SP MM NOT_NAMED 1975-08-02 00:00:00 TS -23.3000 180.000 main 589 589 O________OO_O_ jtwc_sh SH011976 -23.3000 180.000 -1 -23.3000 180.000 TC 35 -23.3000 180.000 2 -23.3000 180.000 TC 45 11 115
1975212S24178 1976 64 SP MM NOT_NAMED 1975-08-02 03:00:00 TS -23.5456 180.511 main 628 628 P________PP_P_ SH011976 -23.5497 -179.485 -1 -23.5497 -179.485 TC 35 -23.5333 -179.500 2 -23.5497 -179.485 TC 45 10 118
1975212S24178 1976 64 SP MM NOT_NAMED 1975-08-02 06:00:00 TS -23.7944 180.994 main 680 680 O________OP_O_ jtwc_sh SH011976 -23.8000 -179.000 -1 -23.8000 181.000 TC 35 -23.7776 -179.023 2 -23.8000 -179.000 TC 45 10 118
1975212S24178 1976 64 SP MM NOT_NAMED 1975-08-02 09:00:00 TS -24.0204 181.469 main 720 720 P________PP_P_ SH011976 -24.0220 -178.530 -1 -24.0220 -178.530 TC 35 -24.0082 -178.534 2 -24.0295 -178.530 TC 45 10 114
1975212S24178 1976 64 SP MM NOT_NAMED 1975-08-02 12:00:00 TS -24.2000 182.000 main 763 763 O________OO_O_ jtwc_sh SH011976 -24.2000 -178.000 -1 -24.2000 182.000 TC 35 -24.2000 -178.000 2 -24.2000 -178.000 TC 45 11 104
1975212S24178 1976 64 SP MM NOT_NAMED 1975-08-02 15:00:00 TS -24.3056 182.681 main 807 807 P________PP_P_ SH011976 -24.3227 -177.322 -1 -24.3227 -177.322 TC 35 -24.3118 -177.310 2 -24.2652 -177.322 TC 42 13 98
1975212S24178 1976 64 SP MM NOT_NAMED 1975-08-02 18:00:00 TS -24.3706 183.405 main 856 856 O________OP_O_ jtwc_sh SH011976 -24.4000 -176.600 -1 -24.4000 183.400 TC 35 -24.3826 -176.581 2 -24.3000 -176.600 TC 40 13 96
1975212S24178 1976 64 SP MM NOT_NAMED 1975-08-02 21:00:00 TS -24.4325 184.111 main 899 899 P________PP_P_ SH011976 -24.4502 -175.890 -1 -24.4502 -175.890 TC 35 -24.4368 -175.888 2 -24.3927 -175.890 TC 37 12 96
1975212S24178 1976 64 SP MM NOT_NAMED 1975-08-03 00:00:00 TS -24.5000 184.700 main 947 947 O________OO_O_ jtwc_sh SH011976 -24.5000 -175.300 -1 -24.5000 184.700 TC 35 -24.5000 -175.300 2 -24.5000 -175.300 TC 35 9 100
1975212S24178 1976 64 SP MM NOT_NAMED 1975-08-03 03:00:00 TS -24.5915 185.070 main 983 983 P________PP_P_ SH011976 -24.5845 -174.940 -1 -24.5845 -174.940 TC 35 -24.6048 -174.902 2 -24.5920 -174.940 TC 35 6 110
1975212S24178 1976 64 SP MM NOT_NAMED 1975-08-03 06:00:00 TS -24.7064 185.321 main 1005 1005 O________OP_O_ jtwc_sh SH011976 -24.7000 -174.700 -1 -24.7000 185.300 TC 35 -24.7254 -174.615 2 -24.7000 -174.700 TC 35 5 119
1975212S24178 1976 64 SP MM NOT_NAMED 1975-08-03 09:00:00 TS -24.8464 185.573 main 1034 1034 P________PP_P_ SH011976 -24.8425 -174.435 -1 -24.8425 -174.435 TC 35 -24.8585 -174.395 2 -24.8424 -174.442 TC 35 5 124
1975212S24178 1976 64 SP MM NOT_NAMED 1975-08-03 12:00:00 TS -25.0000 185.800 main 1064 1064 O________OO_O_ jtwc_sh SH011976 -25.0000 -174.200 -1 -25.0000 185.800 TC 35 -25.0000 -174.200 2 -25.0000 -174.200 TC 35 5 126
1975212S24178 1976 64 SP MM NOT_NAMED 1975-08-03 15:00:00 TS -25.1420 186.020 main 1086 1086 P________PP_P_ SH011976 -25.1499 -174.000 -1 -25.1499 -174.000 TC 35 -25.1180 -173.976 2 -25.1500 -173.942 TC 35 5 126
1975212S24178 1976 64 SP MM NOT_NAMED 1975-08-03 18:00:00 TS -25.2867 186.234 main 1116 1116 O________OP_O_ jtwc_sh SH011976 -25.3000 -173.800 -1 -25.3000 186.200 TC 35 -25.2469 -173.764 2 -25.3000 -173.700 TC 35 5 126
1975212S24178 1976 64 SP MM NOT_NAMED 1975-08-03 21:00:00 TS -25.4249 186.453 main 1146 1146 P________PP_P_ SH011976 -25.4350 -173.565 -1 -25.4350 -173.565 TC 35 -25.4024 -173.545 2 -25.4273 -173.515 TC 35 5 127
1975212S24178 1976 64 SP MM NOT_NAMED 1975-08-04 00:00:00 TS -25.6000 186.700 main 1175 1175 O________OO_O_ jtwc_sh SH011976 -25.6000 -173.300 -1 -25.6000 186.700 TC 35 -25.6000 -173.300 2 -25.6000 -173.300 TC 35 6 130
1975212S24178 1976 64 SP MM NOT_NAMED 1975-08-04 03:00:00 TS -25.8419 186.997 main 1213 1213 P________PP_P_ SH011976 -25.8199 -173.015 -1 -25.8199 -173.015 TC 30 -25.8503 -173.016 2 -25.8776 -172.965 TC 32 8 134
1975212S24178 1976 64 SP MM NOT_NAMED 1975-08-04 06:00:00 TS -26.1359 187.326 main 1257 1257 O________OP_O_ jtwc_sh SH011976 -26.1000 -172.700 -1 -26.1000 187.300 TC 25 -26.1435 -172.697 2 -26.2000 -172.600 TC 30 9 136
1975212S24178 1976 64 SP MM NOT_NAMED 1975-08-04 09:00:00 TS -26.4607 187.662 main 1317 1317 P________PP_P_ SH011976 -26.4352 -172.358 -1 -26.4352 -172.358 TC 25 -26.4650 -172.355 2 -26.5075 -172.283 TC 27 9 138
1975212S24178 1976 64 SP MM NOT_NAMED 1975-08-04 12:00:00 TS -26.8000 188.000 main 1362 O________OO_O_ jtwc_sh SH011976 -26.8000 -172.000 -1 -26.8000 188.000 TC 25 -26.8000 -172.000 6 -26.8000 -172.000 TC 25 9 138

デジタル台風データ・検索

IBTrACS Databaseについて

本データベースは、米国NOAAが公開する1842年以降の世界の熱帯低気圧のベストトラックデータアーカイブInternational Best Track Archive for Climate Stewardship (IBTrACS)を、ウェブで閲覧しやすい形式に変換したものです。

最終更新日:2021-12-03